Terminal Aerodrome Forecast
Issued by NWS

Home | Current Version | Previous Version | Graphics & Text | Print | Product List | Glossary On
Versions: 1 2 3 4 5 6 7 8 9 10 11 12 13 14 15 16 17 18 19 20 21 22 23
845
FTUS43 KABR 201707 AAD
TAFATY
TAF AMD
KATY 201707Z 2017/2112 19011KT 1/4SM FG OVC002
      TEMPO 2017/2018 1SM BR BKN010
     FM201800 25015KT 1SM BR SCT002 OVC010
     FM201900 27016G24KT P6SM OVC015
     FM202030 28016G24KT P6SM BKN035
     FM202100 29017G25KT P6SM SCT100
     FM210500 20007KT P6SM FEW150=

USA.gov is the U.S. government's official web portal to all federal, state and local government web resources and services.